NOAA-Style Climate Reports

Select a Year or Month report
2017: Jan Fev Mar Abr Mai Jun Jul Ago Set Out Nov Dez
2016: Jan Fev Mar Abr Mai Jun Jul Ago Set Out Nov Dez
2015: Jan Fev Mar Abr Mai Jun Jul Ago Set Out Nov Dez
2014: Jan Fev Mar Abr Mai Jun Jul Ago Set Out Nov Dez
2013: Jan Fev Mar Abr Mai Jun Jul Ago Set Out Nov Dez
2012: Jan Fev Mar Abr Mai Jun Jul Ago Set Out Nov Dez

Report for 2017 Maio
                   Monthly Climatological Summary for mai 2017

Name: Estação Jardim Recreio   City: Ribeirão Preto   State: São Paulo
Elevation: 580 m  Lat: S 21° 10' 40"   Lon: W 047° 48' 36"

                  Temperature (°C), Rain (mm), Wind Speed (km/h)

                                      Heat  Cool        Avg
    Mean                              Deg   Deg         Wind                 Dom
Day Temp  High   Time   Low    Time   Days  Days  Rain  Speed High   Time    Dir
----------------------------------------------------------------------------------
 1  25,7  33,2   15:35  13,8   15:27   0,8  13,1   0,0   0,1  11,0   05:16   SSE
 2  33,2  33,2   00:00  33,2   00:00   0,0  14,9   0,0   0,0   1,0   00:00     E
 3  33,2  33,2   00:00  33,2   00:00   0,0  14,9   0,0   0,0   1,0   00:00     E
 4  33,2  33,2   00:00  33,2   00:00   0,0  14,9   0,0   0,0   1,0   00:00     E
 5  33,2  33,2   00:00  33,2   00:00   0,0  14,9   0,0   0,0   1,0   00:00     E
 6  33,2  33,2   00:00  33,2   00:00   0,0  14,9   0,0   0,0   1,0   00:00     E
 7  33,2  33,2   00:00  33,2   00:00   0,0  14,9   0,0   0,0   1,0   00:00     E
 8  33,2  33,2   00:00  33,2   00:00   0,0  14,9   0,0   0,0   1,0   00:00     E
 9  33,2  33,2   00:00  33,2   00:00   0,0  14,9   0,0   0,0   1,0   00:00     E
10  32,4  33,2   00:00  20,9   23:53   0,0  14,1 263,1   0,0  11,0   23:40     S
11  17,2  20,9   00:06  12,2   23:52   1,6   0,5   1,5   3,0  22,0   07:02   SSW
12  16,4  22,6   15:02   9,7   06:48   2,9   1,0   0,0   0,1   7,0   13:44   SSW
13  18,1  21,8   12:29  14,5   07:04   1,1   0,9   0,3   0,0   3,0   12:03     E
14  18,9  26,4   15:21  13,9   23:48   1,6   2,2   0,3   1,0  18,0   16:00     S
15  18,0  27,4   15:50  10,4   06:44   2,7   2,5   0,0   0,2  13,0   16:03   ESE
16  19,0  30,6   15:53   8,9   07:00   2,8   3,4   0,0   0,1   5,0   15:40     S
17  21,4  31,8   15:43  12,0   06:37   1,5   4,6   0,0   0,3  11,0   13:59   SSW
19  22,1  31,0   21:21  13,8   07:06   0,8   7,0   0,0   0,0  11,0   20:55    SE
20  19,7  19,7   00:00  19,7   00:00   0,0   1,4   0,0   0,0   1,0   00:00     E
21  19,7  19,7   00:00  19,7   00:00   0,0   1,4   0,0   0,0   1,0   00:00     E
22  19,7  19,7   00:00  19,7   00:00   0,0   1,4   0,0   0,0   1,0   00:00     E
23  19,7  19,7   00:00  19,7   00:00   0,0   1,4   0,0   0,0   1,0   00:00     E
24  19,7  19,7   00:00  19,7   00:00   0,0   1,4   0,0   0,0   1,0   00:00     E
25  19,7  19,7   00:00  19,7   00:00   0,0   1,4   0,0   0,0   1,0   00:00     E
26  19,7  19,7   00:00  19,7   00:00   0,0   1,4   0,0   0,0   1,0   00:00     E
27  19,7  19,7   00:00  19,7   00:00   0,0   1,4   0,0   0,0   1,0   00:00     E
28  19,7  19,7   00:00  19,7   00:00   0,0   1,4   0,0   0,0   1,0   00:00     E
29  19,7  19,7   00:00  19,7   00:00   0,0   1,4   0,0   0,0   1,0   00:00     E
30  19,7  19,7   00:00  19,7   00:00   0,0   1,4   0,0   0,0   1,0   00:00     E
31  19,7  19,7   00:00  19,7   00:00   0,0   1,4   0,0   0,0   1,0   00:00     E
----------------------------------------------------------------------------------
    23,7  33,2     1     8,9    16    15,8 185,3 265,2   0,0  22,0    11     SSW

Max >=  27,0: 14
Max <=   0,0:  0
Min <=   0,0:  0
Min <= -18,0:  0
Max Rain: 263,1 on day 10
Days of Rain: 4 (>= 0,2 mm)  1 (>= 2,0 mm)  1 (>= 20,0 mm)
Heat Base: 18,3  Cool Base: 18,3  Method: Integration